Terminal Aerodrome Forecast
Issued by NWS Paducah, KY

Home | Current Version | Previous Version | Text Only | Print | Product List | Glossary On
Versions: 1 2 3 4 5 6 7 8 9 10 11 12 13 14 15 16 17 18 19 20 21 22 23
127
FTUS43 KPAH 221602 AAB
TAFEVV
TAF AMD
KEVV 221602Z 2216/2312 00000KT P6SM SKC
     FM221700 18006KT P6SM SCT025
     FM221900 18006KT P6SM BKN035
     FM230600 20003KT 6SM BR BKN025=

USA.gov is the U.S. government's official web portal to all federal, state and local government web resources and services.